sensor_id;sensor_type;location;lat;lon;timestamp;temperature;humidity
4461;DHT22;2243;48.812;9.232;2023-02-20T00:00:41;10.20;99.90
4461;DHT22;2243;48.812;9.232;2023-02-20T00:03:14;10.10;99.90
4461;DHT22;2243;48.812;9.232;2023-02-20T00:05:46;10.10;99.90
4461;DHT22;2243;48.812;9.232;2023-02-20T00:08:17;10.10;99.90
4461;DHT22;2243;48.812;9.232;2023-02-20T00:10:48;10.10;99.90
4461;DHT22;2243;48.812;9.232;2023-02-20T00:13:19;10.10;99.90
4461;DHT22;2243;48.812;9.232;2023-02-20T00:15:50;10.20;99.90
4461;DHT22;2243;48.812;9.232;2023-02-20T00:18:21;10.10;99.90
4461;DHT22;2243;48.812;9.232;2023-02-20T00:20:52;10.10;99.90
4461;DHT22;2243;48.812;9.232;2023-02-20T00:23:23;10.20;99.90
4461;DHT22;2243;48.812;9.232;2023-02-20T00:25:54;10.20;99.90
4461;DHT22;2243;48.812;9.232;2023-02-20T00:28:25;10.20;99.90
4461;DHT22;2243;48.812;9.232;2023-02-20T00:30:56;10.20;99.90
4461;DHT22;2243;48.812;9.232;2023-02-20T00:33:27;10.20;99.90
4461;DHT22;2243;48.812;9.232;2023-02-20T00:36:00;10.20;99.90
4461;DHT22;2243;48.812;9.232;2023-02-20T00:38:31;10.20;99.90
4461;DHT22;2243;48.812;9.232;2023-02-20T00:41:02;10.20;99.90
4461;DHT22;2243;48.812;9.232;2023-02-20T00:43:33;10.20;99.90
4461;DHT22;2243;48.812;9.232;2023-02-20T00:46:06;10.00;99.90
4461;DHT22;2243;48.812;9.232;2023-02-20T00:48:42;10.00;99.90
4461;DHT22;2243;48.812;9.232;2023-02-20T00:51:13;10.00;99.90
4461;DHT22;2243;48.812;9.232;2023-02-20T00:53:44;10.00;99.90
4461;DHT22;2243;48.812;9.232;2023-02-20T00:56:15;10.00;99.90
4461;DHT22;2243;48.812;9.232;2023-02-20T00:58:46;10.00;99.90
4461;DHT22;2243;48.812;9.232;2023-02-20T01:01:17;10.00;99.90
4461;DHT22;2243;48.812;9.232;2023-02-20T01:03:48;10.10;99.90
4461;DHT22;2243;48.812;9.232;2023-02-20T01:06:19;10.00;99.90
4461;DHT22;2243;48.812;9.232;2023-02-20T01:08:50;10.00;99.90
4461;DHT22;2243;48.812;9.232;2023-02-20T01:11:22;10.00;99.90
4461;DHT22;2243;48.812;9.232;2023-02-20T01:13:53;10.00;99.90
4461;DHT22;2243;48.812;9.232;2023-02-20T01:16:23;9.90;99.90
4461;DHT22;2243;48.812;9.232;2023-02-20T01:18:54;9.90;99.90
4461;DHT22;2243;48.812;9.232;2023-02-20T01:21:25;9.90;99.90
4461;DHT22;2243;48.812;9.232;2023-02-20T01:23:56;9.80;99.90
4461;DHT22;2243;48.812;9.232;2023-02-20T01:26:27;9.80;99.90
4461;DHT22;2243;48.812;9.232;2023-02-20T01:28:58;9.80;99.90
4461;DHT22;2243;48.812;9.232;2023-02-20T01:31:29;9.70;99.90
4461;DHT22;2243;48.812;9.232;2023-02-20T01:34:00;9.60;99.90
4461;DHT22;2243;48.812;9.232;2023-02-20T01:36:31;9.60;99.90
4461;DHT22;2243;48.812;9.232;2023-02-20T01:39:03;9.60;99.90
4461;DHT22;2243;48.812;9.232;2023-02-20T01:41:34;9.60;99.90
4461;DHT22;2243;48.812;9.232;2023-02-20T01:44:16;9.50;99.90
4461;DHT22;2243;48.812;9.232;2023-02-20T01:46:56;9.50;99.90
4461;DHT22;2243;48.812;9.232;2023-02-20T01:49:45;9.40;99.90
4461;DHT22;2243;48.812;9.232;2023-02-20T01:52:26;9.30;99.90
4461;DHT22;2243;48.812;9.232;2023-02-20T01:55:09;9.30;99.90
4461;DHT22;2243;48.812;9.232;2023-02-20T01:57:49;9.20;99.90
4461;DHT22;2243;48.812;9.232;2023-02-20T02:00:22;9.20;99.90
4461;DHT22;2243;48.812;9.232;2023-02-20T02:03:01;9.20;99.90
4461;DHT22;2243;48.812;9.232;2023-02-20T02:05:42;9.20;99.90
4461;DHT22;2243;48.812;9.232;2023-02-20T02:08:17;9.20;99.90
4461;DHT22;2243;48.812;9.232;2023-02-20T02:13:42;9.20;99.90
4461;DHT22;2243;48.812;9.232;2023-02-20T02:23:15;9.10;99.90
4461;DHT22;2243;48.812;9.232;2023-02-20T02:29:37;9.10;99.90
4461;DHT22;2243;48.812;9.232;2023-02-20T02:38:46;9.10;99.90
4461;DHT22;2243;48.812;9.232;2023-02-20T02:42:30;9.10;99.90
4461;DHT22;2243;48.812;9.232;2023-02-20T02:48:13;9.20;99.90
4461;DHT22;2243;48.812;9.232;2023-02-20T02:50:54;9.20;99.90
4461;DHT22;2243;48.812;9.232;2023-02-20T02:53:27;9.20;99.90
4461;DHT22;2243;48.812;9.232;2023-02-20T02:55:57;9.20;99.90
4461;DHT22;2243;48.812;9.232;2023-02-20T02:58:50;9.20;99.90
4461;DHT22;2243;48.812;9.232;2023-02-20T03:01:23;9.20;99.90
4461;DHT22;2243;48.812;9.232;2023-02-20T03:03:55;9.30;99.90
4461;DHT22;2243;48.812;9.232;2023-02-20T03:06:34;9.30;99.90
4461;DHT22;2243;48.812;9.232;2023-02-20T03:09:15;9.30;99.90
4461;DHT22;2243;48.812;9.232;2023-02-20T03:11:56;9.30;99.90
4461;DHT22;2243;48.812;9.232;2023-02-20T03:14:58;9.20;99.90
4461;DHT22;2243;48.812;9.232;2023-02-20T03:20:45;9.10;99.90
4461;DHT22;2243;48.812;9.232;2023-02-20T03:23:23;9.20;99.90
4461;DHT22;2243;48.812;9.232;2023-02-20T03:26:18;9.30;99.90
4461;DHT22;2243;48.812;9.232;2023-02-20T03:28:59;9.20;99.90
4461;DHT22;2243;48.812;9.232;2023-02-20T03:31:49;9.30;99.90
4461;DHT22;2243;48.812;9.232;2023-02-20T03:34:42;9.20;99.90
4461;DHT22;2243;48.812;9.232;2023-02-20T03:37:34;9.30;99.90
4461;DHT22;2243;48.812;9.232;2023-02-20T03:40:26;9.10;99.90
4461;DHT22;2243;48.812;9.232;2023-02-20T03:43:19;9.00;99.90
4461;DHT22;2243;48.812;9.232;2023-02-20T03:46:01;9.00;99.90
4461;DHT22;2243;48.812;9.232;2023-02-20T03:51:36;8.90;99.90
4461;DHT22;2243;48.812;9.232;2023-02-20T03:54:27;8.90;99.90
4461;DHT22;2243;48.812;9.232;2023-02-20T03:57:12;8.90;99.90
4461;DHT22;2243;48.812;9.232;2023-02-20T04:02:39;8.90;99.90
4461;DHT22;2243;48.812;9.232;2023-02-20T04:05:19;8.90;99.90
4461;DHT22;2243;48.812;9.232;2023-02-20T04:07:59;9.00;99.90
4461;DHT22;2243;48.812;9.232;2023-02-20T04:10:52;9.10;99.90
4461;DHT22;2243;48.812;9.232;2023-02-20T04:13:28;9.10;99.90
4461;DHT22;2243;48.812;9.232;2023-02-20T04:16:01;9.00;99.90
4461;DHT22;2243;48.812;9.232;2023-02-20T04:18:33;9.00;99.90
4461;DHT22;2243;48.812;9.232;2023-02-20T04:21:11;9.00;99.90
4461;DHT22;2243;48.812;9.232;2023-02-20T04:24:04;9.00;99.90
4461;DHT22;2243;48.812;9.232;2023-02-20T04:26:37;8.80;99.90
4461;DHT22;2243;48.812;9.232;2023-02-20T04:29:08;8.90;99.90
4461;DHT22;2243;48.812;9.232;2023-02-20T04:31:40;8.90;99.90
4461;DHT22;2243;48.812;9.232;2023-02-20T04:34:11;9.00;99.90
4461;DHT22;2243;48.812;9.232;2023-02-20T04:36:42;8.90;99.90
4461;DHT22;2243;48.812;9.232;2023-02-20T04:39:13;9.00;99.90
4461;DHT22;2243;48.812;9.232;2023-02-20T04:41:44;9.00;99.90
4461;DHT22;2243;48.812;9.232;2023-02-20T04:44:15;8.80;99.90
4461;DHT22;2243;48.812;9.232;2023-02-20T04:47:03;8.80;99.90
4461;DHT22;2243;48.812;9.232;2023-02-20T04:49:35;8.70;99.90
4461;DHT22;2243;48.812;9.232;2023-02-20T04:52:06;8.60;99.90
4461;DHT22;2243;48.812;9.232;2023-02-20T04:54:37;8.70;99.90
4461;DHT22;2243;48.812;9.232;2023-02-20T04:57:08;8.80;99.90
4461;DHT22;2243;48.812;9.232;2023-02-20T04:59:39;8.80;99.90
4461;DHT22;2243;48.812;9.232;2023-02-20T05:02:10;8.80;99.90
4461;DHT22;2243;48.812;9.232;2023-02-20T05:04:41;8.80;99.90
4461;DHT22;2243;48.812;9.232;2023-02-20T05:07:12;8.70;99.90
4461;DHT22;2243;48.812;9.232;2023-02-20T05:09:43;8.70;99.90
4461;DHT22;2243;48.812;9.232;2023-02-20T05:12:14;8.60;99.90
4461;DHT22;2243;48.812;9.232;2023-02-20T05:14:45;8.60;99.90
4461;DHT22;2243;48.812;9.232;2023-02-20T05:17:16;8.60;99.90
4461;DHT22;2243;48.812;9.232;2023-02-20T05:19:47;8.60;99.90
4461;DHT22;2243;48.812;9.232;2023-02-20T05:22:17;8.60;99.90
4461;DHT22;2243;48.812;9.232;2023-02-20T05:24:50;8.60;99.90
4461;DHT22;2243;48.812;9.232;2023-02-20T05:27:22;8.50;99.90
4461;DHT22;2243;48.812;9.232;2023-02-20T05:29:56;8.50;99.90
4461;DHT22;2243;48.812;9.232;2023-02-20T05:32:29;8.50;99.90
4461;DHT22;2243;48.812;9.232;2023-02-20T05:35:00;8.50;99.90
4461;DHT22;2243;48.812;9.232;2023-02-20T05:37:31;8.50;99.90
4461;DHT22;2243;48.812;9.232;2023-02-20T05:40:03;8.50;99.90
4461;DHT22;2243;48.812;9.232;2023-02-20T05:42:35;8.40;99.90
4461;DHT22;2243;48.812;9.232;2023-02-20T05:45:07;8.40;99.90
4461;DHT22;2243;48.812;9.232;2023-02-20T05:47:38;8.50;99.90
4461;DHT22;2243;48.812;9.232;2023-02-20T05:50:09;8.50;99.90
4461;DHT22;2243;48.812;9.232;2023-02-20T05:52:40;8.40;99.90
4461;DHT22;2243;48.812;9.232;2023-02-20T05:55:11;8.30;99.90
4461;DHT22;2243;48.812;9.232;2023-02-20T05:57:42;8.20;99.90
4461;DHT22;2243;48.812;9.232;2023-02-20T06:00:13;8.10;99.90
4461;DHT22;2243;48.812;9.232;2023-02-20T06:02:45;8.10;99.90
4461;DHT22;2243;48.812;9.232;2023-02-20T06:05:16;8.20;99.90
4461;DHT22;2243;48.812;9.232;2023-02-20T06:07:47;8.30;99.90
4461;DHT22;2243;48.812;9.232;2023-02-20T06:10:18;8.30;99.90
4461;DHT22;2243;48.812;9.232;2023-02-20T06:12:50;8.30;99.90
4461;DHT22;2243;48.812;9.232;2023-02-20T06:15:21;8.20;99.90
4461;DHT22;2243;48.812;9.232;2023-02-20T06:17:52;8.20;99.90
4461;DHT22;2243;48.812;9.232;2023-02-20T06:20:23;8.30;99.90
4461;DHT22;2243;48.812;9.232;2023-02-20T06:22:53;8.10;99.90
4461;DHT22;2243;48.812;9.232;2023-02-20T06:25:24;8.10;99.90
4461;DHT22;2243;48.812;9.232;2023-02-20T06:27:55;8.10;99.90
4461;DHT22;2243;48.812;9.232;2023-02-20T06:30:26;7.90;99.90
4461;DHT22;2243;48.812;9.232;2023-02-20T06:32:57;7.80;99.90
4461;DHT22;2243;48.812;9.232;2023-02-20T06:35:28;7.70;99.90
4461;DHT22;2243;48.812;9.232;2023-02-20T06:37:59;7.60;99.90
4461;DHT22;2243;48.812;9.232;2023-02-20T06:40:30;7.60;99.90
4461;DHT22;2243;48.812;9.232;2023-02-20T06:43:01;7.60;99.90
4461;DHT22;2243;48.812;9.232;2023-02-20T06:45:32;7.50;99.90
4461;DHT22;2243;48.812;9.232;2023-02-20T06:48:03;7.40;99.90
4461;DHT22;2243;48.812;9.232;2023-02-20T06:50:34;7.30;99.90
4461;DHT22;2243;48.812;9.232;2023-02-20T06:53:05;7.30;99.90
4461;DHT22;2243;48.812;9.232;2023-02-20T06:55:37;7.30;99.90
4461;DHT22;2243;48.812;9.232;2023-02-20T06:58:08;7.20;99.90
4461;DHT22;2243;48.812;9.232;2023-02-20T07:00:40;7.20;99.90
4461;DHT22;2243;48.812;9.232;2023-02-20T07:03:11;7.20;99.90
4461;DHT22;2243;48.812;9.232;2023-02-20T07:05:42;7.20;99.90
4461;DHT22;2243;48.812;9.232;2023-02-20T07:08:14;7.30;99.90
4461;DHT22;2243;48.812;9.232;2023-02-20T07:10:45;7.30;99.90
4461;DHT22;2243;48.812;9.232;2023-02-20T07:13:16;7.30;99.90
4461;DHT22;2243;48.812;9.232;2023-02-20T07:15:48;7.30;99.90
4461;DHT22;2243;48.812;9.232;2023-02-20T07:18:19;7.30;99.90
4461;DHT22;2243;48.812;9.232;2023-02-20T07:20:53;7.30;99.90
4461;DHT22;2243;48.812;9.232;2023-02-20T07:23:24;7.40;99.90
4461;DHT22;2243;48.812;9.232;2023-02-20T07:25:55;7.40;99.90
4461;DHT22;2243;48.812;9.232;2023-02-20T07:28:26;7.50;99.90
4461;DHT22;2243;48.812;9.232;2023-02-20T07:30:57;7.50;99.90
4461;DHT22;2243;48.812;9.232;2023-02-20T07:33:28;7.50;99.90
4461;DHT22;2243;48.812;9.232;2023-02-20T07:35:59;7.70;99.90
4461;DHT22;2243;48.812;9.232;2023-02-20T07:38:30;7.80;99.90
4461;DHT22;2243;48.812;9.232;2023-02-20T07:41:01;7.90;99.90
4461;DHT22;2243;48.812;9.232;2023-02-20T07:43:33;7.90;99.90
4461;DHT22;2243;48.812;9.232;2023-02-20T07:46:04;7.90;99.90
4461;DHT22;2243;48.812;9.232;2023-02-20T07:48:35;7.90;99.90
4461;DHT22;2243;48.812;9.232;2023-02-20T07:51:06;8.10;99.90
4461;DHT22;2243;48.812;9.232;2023-02-20T07:53:37;8.30;99.90
4461;DHT22;2243;48.812;9.232;2023-02-20T07:56:08;8.40;99.90
4461;DHT22;2243;48.812;9.232;2023-02-20T07:58:39;8.50;99.90
4461;DHT22;2243;48.812;9.232;2023-02-20T08:01:11;8.60;99.90
4461;DHT22;2243;48.812;9.232;2023-02-20T08:03:42;8.70;99.90
4461;DHT22;2243;48.812;9.232;2023-02-20T08:06:16;8.70;99.90
4461;DHT22;2243;48.812;9.232;2023-02-20T08:08:48;8.80;99.90
4461;DHT22;2243;48.812;9.232;2023-02-20T08:11:21;8.90;99.90
4461;DHT22;2243;48.812;9.232;2023-02-20T08:13:52;8.90;99.90
4461;DHT22;2243;48.812;9.232;2023-02-20T08:16:26;8.90;99.90
4461;DHT22;2243;48.812;9.232;2023-02-20T08:18:59;9.00;99.90
4461;DHT22;2243;48.812;9.232;2023-02-20T08:21:31;9.10;99.90
4461;DHT22;2243;48.812;9.232;2023-02-20T08:24:02;9.10;99.90
4461;DHT22;2243;48.812;9.232;2023-02-20T08:26:34;9.20;99.90
4461;DHT22;2243;48.812;9.232;2023-02-20T08:29:06;9.20;99.90
4461;DHT22;2243;48.812;9.232;2023-02-20T08:31:38;9.20;99.90
4461;DHT22;2243;48.812;9.232;2023-02-20T08:34:09;9.30;99.90
4461;DHT22;2243;48.812;9.232;2023-02-20T08:36:40;9.30;99.90
4461;DHT22;2243;48.812;9.232;2023-02-20T08:39:11;9.30;99.90
4461;DHT22;2243;48.812;9.232;2023-02-20T08:41:43;9.40;99.90
4461;DHT22;2243;48.812;9.232;2023-02-20T08:44:15;9.50;99.90
4461;DHT22;2243;48.812;9.232;2023-02-20T08:46:47;9.60;99.90
4461;DHT22;2243;48.812;9.232;2023-02-20T08:49:20;9.60;99.90
4461;DHT22;2243;48.812;9.232;2023-02-20T08:51:54;9.60;99.90
4461;DHT22;2243;48.812;9.232;2023-02-20T08:54:26;9.60;99.90
4461;DHT22;2243;48.812;9.232;2023-02-20T08:56:57;9.60;99.90
4461;DHT22;2243;48.812;9.232;2023-02-20T08:59:30;9.70;99.90
4461;DHT22;2243;48.812;9.232;2023-02-20T09:02:02;9.80;99.90
4461;DHT22;2243;48.812;9.232;2023-02-20T09:04:32;9.80;99.90
4461;DHT22;2243;48.812;9.232;2023-02-20T09:07:03;9.80;99.90
4461;DHT22;2243;48.812;9.232;2023-02-20T09:09:34;9.80;99.90
4461;DHT22;2243;48.812;9.232;2023-02-20T09:12:06;9.90;99.90
4461;DHT22;2243;48.812;9.232;2023-02-20T09:14:39;10.00;99.90
4461;DHT22;2243;48.812;9.232;2023-02-20T09:17:13;10.10;99.90
4461;DHT22;2243;48.812;9.232;2023-02-20T09:19:44;10.20;99.90
4461;DHT22;2243;48.812;9.232;2023-02-20T09:22:15;10.20;99.90
4461;DHT22;2243;48.812;9.232;2023-02-20T09:24:46;10.40;99.90
4461;DHT22;2243;48.812;9.232;2023-02-20T09:27:17;10.40;99.90
4461;DHT22;2243;48.812;9.232;2023-02-20T09:29:48;10.50;99.90
4461;DHT22;2243;48.812;9.232;2023-02-20T09:32:19;10.50;99.90
4461;DHT22;2243;48.812;9.232;2023-02-20T09:34:50;10.60;99.90
4461;DHT22;2243;48.812;9.232;2023-02-20T09:37:21;10.80;99.90
4461;DHT22;2243;48.812;9.232;2023-02-20T09:39:52;10.80;99.90
4461;DHT22;2243;48.812;9.232;2023-02-20T09:45:26;11.00;99.90
4461;DHT22;2243;48.812;9.232;2023-02-20T09:51:18;11.20;99.90
4461;DHT22;2243;48.812;9.232;2023-02-20T09:54:11;11.20;99.90
4461;DHT22;2243;48.812;9.232;2023-02-20T09:56:52;11.30;99.90
4461;DHT22;2243;48.812;9.232;2023-02-20T09:59:41;11.40;99.90
4461;DHT22;2243;48.812;9.232;2023-02-20T10:02:18;11.40;99.90
4461;DHT22;2243;48.812;9.232;2023-02-20T10:04:55;11.50;99.90
4461;DHT22;2243;48.812;9.232;2023-02-20T10:07:34;11.50;99.90
4461;DHT22;2243;48.812;9.232;2023-02-20T10:10:30;11.70;99.90
4461;DHT22;2243;48.812;9.232;2023-02-20T10:14:12;11.80;99.90
4461;DHT22;2243;48.812;9.232;2023-02-20T10:16:49;11.90;99.90
4461;DHT22;2243;48.812;9.232;2023-02-20T10:22:25;11.90;99.90
4461;DHT22;2243;48.812;9.232;2023-02-20T10:25:13;11.90;99.90
4461;DHT22;2243;48.812;9.232;2023-02-20T10:28:09;11.80;99.90
4461;DHT22;2243;48.812;9.232;2023-02-20T10:33:44;11.70;99.90
4461;DHT22;2243;48.812;9.232;2023-02-20T10:36:36;11.70;99.90
4461;DHT22;2243;48.812;9.232;2023-02-20T10:39:16;11.70;99.90
4461;DHT22;2243;48.812;9.232;2023-02-20T10:42:02;11.80;99.90
4461;DHT22;2243;48.812;9.232;2023-02-20T10:44:57;11.90;99.90
4461;DHT22;2243;48.812;9.232;2023-02-20T10:47:49;11.90;99.90
4461;DHT22;2243;48.812;9.232;2023-02-20T10:56:32;12.50;99.90
4461;DHT22;2243;48.812;9.232;2023-02-20T11:01:42;13.50;98.90
4461;DHT22;2243;48.812;9.232;2023-02-20T11:04:22;14.10;98.00
4461;DHT22;2243;48.812;9.232;2023-02-20T11:07:02;14.30;97.80
4461;DHT22;2243;48.812;9.232;2023-02-20T11:09:37;14.80;97.10
4461;DHT22;2243;48.812;9.232;2023-02-20T11:15:22;15.10;96.40
4461;DHT22;2243;48.812;9.232;2023-02-20T11:17:56;15.20;95.90
4461;DHT22;2243;48.812;9.232;2023-02-20T11:23:03;15.10;95.50
4461;DHT22;2243;48.812;9.232;2023-02-20T11:25:38;15.00;95.90
4461;DHT22;2243;48.812;9.232;2023-02-20T11:28:24;15.00;95.70
4461;DHT22;2243;48.812;9.232;2023-02-20T11:31:04;14.90;95.50
4461;DHT22;2243;48.812;9.232;2023-02-20T11:33:42;14.90;95.40
4461;DHT22;2243;48.812;9.232;2023-02-20T11:36:22;15.00;95.20
4461;DHT22;2243;48.812;9.232;2023-02-20T11:38:57;15.10;95.10
4461;DHT22;2243;48.812;9.232;2023-02-20T11:41:36;15.00;95.10
4461;DHT22;2243;48.812;9.232;2023-02-20T11:46:40;15.20;95.10
4461;DHT22;2243;48.812;9.232;2023-02-20T11:49:22;15.30;94.90
4461;DHT22;2243;48.812;9.232;2023-02-20T11:52:08;15.40;94.60
4461;DHT22;2243;48.812;9.232;2023-02-20T11:54:47;15.40;94.30
4461;DHT22;2243;48.812;9.232;2023-02-20T11:57:43;15.30;94.30
4461;DHT22;2243;48.812;9.232;2023-02-20T12:00:20;15.20;94.60
4461;DHT22;2243;48.812;9.232;2023-02-20T12:05:45;15.60;93.60
4461;DHT22;2243;48.812;9.232;2023-02-20T12:10:56;15.70;93.40
4461;DHT22;2243;48.812;9.232;2023-02-20T12:13:36;15.60;93.40
4461;DHT22;2243;48.812;9.232;2023-02-20T12:19:36;15.70;93.00
4461;DHT22;2243;48.812;9.232;2023-02-20T12:36:39;16.40;91.90
4461;DHT22;2243;48.812;9.232;2023-02-20T12:42:36;16.50;91.80
4461;DHT22;2243;48.812;9.232;2023-02-20T12:48:38;16.60;91.30
4461;DHT22;2243;48.812;9.232;2023-02-20T12:57:41;16.90;90.50
4461;DHT22;2243;48.812;9.232;2023-02-20T13:00:30;17.00;90.60
4461;DHT22;2243;48.812;9.232;2023-02-20T13:03:12;17.00;90.40
4461;DHT22;2243;48.812;9.232;2023-02-20T13:05:48;17.10;90.20
4461;DHT22;2243;48.812;9.232;2023-02-20T13:08:44;17.40;90.10
4461;DHT22;2243;48.812;9.232;2023-02-20T13:11:25;17.40;89.20
4461;DHT22;2243;48.812;9.232;2023-02-20T13:17:07;17.40;88.20
4461;DHT22;2243;48.812;9.232;2023-02-20T13:20:16;17.40;86.90
4461;DHT22;2243;48.812;9.232;2023-02-20T13:23:00;17.10;86.30
4461;DHT22;2243;48.812;9.232;2023-02-20T13:25:40;17.30;86.40
4461;DHT22;2243;48.812;9.232;2023-02-20T13:28:27;17.30;86.20
4461;DHT22;2243;48.812;9.232;2023-02-20T13:31:20;17.40;84.70
4461;DHT22;2243;48.812;9.232;2023-02-20T13:36:57;17.60;83.60
4461;DHT22;2243;48.812;9.232;2023-02-20T13:45:34;17.90;82.20
4461;DHT22;2243;48.812;9.232;2023-02-20T13:53:54;18.50;80.90
4461;DHT22;2243;48.812;9.232;2023-02-20T13:59:13;18.50;79.60
4461;DHT22;2243;48.812;9.232;2023-02-20T14:01:54;18.50;79.20
4461;DHT22;2243;48.812;9.232;2023-02-20T14:04:54;18.70;77.70
4461;DHT22;2243;48.812;9.232;2023-02-20T14:10:12;19.00;74.60
4461;DHT22;2243;48.812;9.232;2023-02-20T14:12:46;18.90;73.10
4461;DHT22;2243;48.812;9.232;2023-02-20T14:15:25;18.80;72.70
4461;DHT22;2243;48.812;9.232;2023-02-20T14:17:57;18.70;72.20
4461;DHT22;2243;48.812;9.232;2023-02-20T14:20:34;18.60;72.00
4461;DHT22;2243;48.812;9.232;2023-02-20T14:23:24;18.60;71.80
4461;DHT22;2243;48.812;9.232;2023-02-20T14:26:01;18.60;71.00
4461;DHT22;2243;48.812;9.232;2023-02-20T14:28:34;18.60;72.90
4461;DHT22;2243;48.812;9.232;2023-02-20T14:31:27;18.50;78.30
4461;DHT22;2243;48.812;9.232;2023-02-20T14:34:18;18.30;80.00
4461;DHT22;2243;48.812;9.232;2023-02-20T14:37:19;18.20;81.10
4461;DHT22;2243;48.812;9.232;2023-02-20T14:43:14;18.40;81.30
4461;DHT22;2243;48.812;9.232;2023-02-20T14:46:03;18.40;81.20
4461;DHT22;2243;48.812;9.232;2023-02-20T14:48:36;18.70;80.10
4461;DHT22;2243;48.812;9.232;2023-02-20T14:51:44;18.50;78.40
4461;DHT22;2243;48.812;9.232;2023-02-20T14:54:22;18.40;79.00
4461;DHT22;2243;48.812;9.232;2023-02-20T14:56:57;18.20;78.20
4461;DHT22;2243;48.812;9.232;2023-02-20T14:59:35;18.10;77.80
4461;DHT22;2243;48.812;9.232;2023-02-20T15:02:22;17.90;78.70
4461;DHT22;2243;48.812;9.232;2023-02-20T15:05:09;17.80;78.40
4461;DHT22;2243;48.812;9.232;2023-02-20T15:07:46;17.50;79.00
4461;DHT22;2243;48.812;9.232;2023-02-20T15:10:36;17.40;80.10
4461;DHT22;2243;48.812;9.232;2023-02-20T15:13:14;17.50;79.80
4461;DHT22;2243;48.812;9.232;2023-02-20T15:15:50;17.30;80.20
4461;DHT22;2243;48.812;9.232;2023-02-20T15:18:44;17.10;80.30
4461;DHT22;2243;48.812;9.232;2023-02-20T15:21:40;16.90;80.70
4461;DHT22;2243;48.812;9.232;2023-02-20T15:24:29;16.90;80.70
4461;DHT22;2243;48.812;9.232;2023-02-20T15:27:10;16.80;80.90
4461;DHT22;2243;48.812;9.232;2023-02-20T15:29:46;16.60;81.70
4461;DHT22;2243;48.812;9.232;2023-02-20T15:32:23;16.30;81.80
4461;DHT22;2243;48.812;9.232;2023-02-20T15:34:55;16.20;82.30
4461;DHT22;2243;48.812;9.232;2023-02-20T15:37:30;16.00;82.90
4461;DHT22;2243;48.812;9.232;2023-02-20T15:40:21;16.10;82.60
4461;DHT22;2243;48.812;9.232;2023-02-20T15:42:54;16.00;83.20
4461;DHT22;2243;48.812;9.232;2023-02-20T15:45:29;16.00;83.30
4461;DHT22;2243;48.812;9.232;2023-02-20T15:48:00;15.90;83.60
4461;DHT22;2243;48.812;9.232;2023-02-20T15:50:31;15.60;83.10
4461;DHT22;2243;48.812;9.232;2023-02-20T15:53:05;15.60;83.80
4461;DHT22;2243;48.812;9.232;2023-02-20T15:55:38;15.60;83.20
4461;DHT22;2243;48.812;9.232;2023-02-20T15:58:36;15.50;83.50
4461;DHT22;2243;48.812;9.232;2023-02-20T16:01:10;15.50;83.60
4461;DHT22;2243;48.812;9.232;2023-02-20T16:03:42;15.40;83.70
4461;DHT22;2243;48.812;9.232;2023-02-20T16:06:23;15.40;83.60
4461;DHT22;2243;48.812;9.232;2023-02-20T16:08:54;15.30;83.90
4461;DHT22;2243;48.812;9.232;2023-02-20T16:11:33;15.10;84.60
4461;DHT22;2243;48.812;9.232;2023-02-20T16:14:09;15.20;85.20
4461;DHT22;2243;48.812;9.232;2023-02-20T16:16:45;15.00;85.50
4461;DHT22;2243;48.812;9.232;2023-02-20T16:19:20;15.10;85.10
4461;DHT22;2243;48.812;9.232;2023-02-20T16:22:03;15.30;85.00
4461;DHT22;2243;48.812;9.232;2023-02-20T16:24:36;15.30;85.00
4461;DHT22;2243;48.812;9.232;2023-02-20T16:27:21;15.50;84.80
4461;DHT22;2243;48.812;9.232;2023-02-20T16:29:56;15.50;85.00
4461;DHT22;2243;48.812;9.232;2023-02-20T16:32:28;15.60;85.00
4461;DHT22;2243;48.812;9.232;2023-02-20T16:35:00;15.50;85.30
4461;DHT22;2243;48.812;9.232;2023-02-20T16:37:31;15.50;85.40
4461;DHT22;2243;48.812;9.232;2023-02-20T16:40:02;15.50;85.70
4461;DHT22;2243;48.812;9.232;2023-02-20T16:42:36;15.50;86.10
4461;DHT22;2243;48.812;9.232;2023-02-20T16:45:13;15.50;85.30
4461;DHT22;2243;48.812;9.232;2023-02-20T16:47:50;15.50;86.20
4461;DHT22;2243;48.812;9.232;2023-02-20T16:50:24;15.40;86.40
4461;DHT22;2243;48.812;9.232;2023-02-20T16:53:00;15.20;87.10
4461;DHT22;2243;48.812;9.232;2023-02-20T16:55:34;15.00;87.10
4461;DHT22;2243;48.812;9.232;2023-02-20T16:58:07;14.70;87.70
4461;DHT22;2243;48.812;9.232;2023-02-20T17:00:40;14.60;87.80
4461;DHT22;2243;48.812;9.232;2023-02-20T17:03:26;14.50;88.20
4461;DHT22;2243;48.812;9.232;2023-02-20T17:05:57;14.40;88.80
4461;DHT22;2243;48.812;9.232;2023-02-20T17:08:29;14.30;88.90
4461;DHT22;2243;48.812;9.232;2023-02-20T17:11:00;14.20;89.00
4461;DHT22;2243;48.812;9.232;2023-02-20T17:13:31;14.00;90.10
4461;DHT22;2243;48.812;9.232;2023-02-20T17:16:02;13.90;90.20
4461;DHT22;2243;48.812;9.232;2023-02-20T17:18:33;13.60;90.70
4461;DHT22;2243;48.812;9.232;2023-02-20T17:21:04;13.50;91.10
4461;DHT22;2243;48.812;9.232;2023-02-20T17:23:36;13.30;91.30
4461;DHT22;2243;48.812;9.232;2023-02-20T17:26:10;13.20;91.70
4461;DHT22;2243;48.812;9.232;2023-02-20T17:28:43;12.90;92.10
4461;DHT22;2243;48.812;9.232;2023-02-20T17:31:14;13.10;99.90
4461;DHT22;2243;48.812;9.232;2023-02-20T17:33:46;13.60;99.90
4461;DHT22;2243;48.812;9.232;2023-02-20T17:36:17;13.30;96.50
4461;DHT22;2243;48.812;9.232;2023-02-20T17:38:48;12.90;96.30
4461;DHT22;2243;48.812;9.232;2023-02-20T17:41:21;12.60;96.00
4461;DHT22;2243;48.812;9.232;2023-02-20T17:43:52;12.40;96.10
4461;DHT22;2243;48.812;9.232;2023-02-20T17:46:23;12.20;96.30
4461;DHT22;2243;48.812;9.232;2023-02-20T17:48:55;11.90;96.80
4461;DHT22;2243;48.812;9.232;2023-02-20T17:51:26;11.80;97.30
4461;DHT22;2243;48.812;9.232;2023-02-20T17:53:57;11.60;97.60
4461;DHT22;2243;48.812;9.232;2023-02-20T17:56:27;11.40;97.50
4461;DHT22;2243;48.812;9.232;2023-02-20T17:58:58;11.20;97.80
4461;DHT22;2243;48.812;9.232;2023-02-20T18:01:29;11.00;98.20
4461;DHT22;2243;48.812;9.232;2023-02-20T18:04:00;10.90;98.60
4461;DHT22;2243;48.812;9.232;2023-02-20T18:06:35;10.70;98.60
4461;DHT22;2243;48.812;9.232;2023-02-20T18:09:07;10.60;98.90
4461;DHT22;2243;48.812;9.232;2023-02-20T18:11:39;10.60;99.00
4461;DHT22;2243;48.812;9.232;2023-02-20T18:14:13;10.40;99.10
4461;DHT22;2243;48.812;9.232;2023-02-20T18:16:44;10.40;98.90
4461;DHT22;2243;48.812;9.232;2023-02-20T18:19:16;10.30;99.10
4461;DHT22;2243;48.812;9.232;2023-02-20T18:21:47;10.20;99.30
4461;DHT22;2243;48.812;9.232;2023-02-20T18:26:56;10.00;99.50
4461;DHT22;2243;48.812;9.232;2023-02-20T18:29:27;9.90;99.80
4461;DHT22;2243;48.812;9.232;2023-02-20T18:31:59;9.80;99.90
4461;DHT22;2243;48.812;9.232;2023-02-20T18:34:31;9.70;99.90
4461;DHT22;2243;48.812;9.232;2023-02-20T18:37:02;9.70;99.90
4461;DHT22;2243;48.812;9.232;2023-02-20T18:39:32;9.60;99.90
4461;DHT22;2243;48.812;9.232;2023-02-20T18:42:03;9.70;99.90
4461;DHT22;2243;48.812;9.232;2023-02-20T18:44:34;9.60;99.90
4461;DHT22;2243;48.812;9.232;2023-02-20T18:47:06;9.60;99.90
4461;DHT22;2243;48.812;9.232;2023-02-20T18:49:39;9.40;99.90
4461;DHT22;2243;48.812;9.232;2023-02-20T18:52:10;9.30;99.90
4461;DHT22;2243;48.812;9.232;2023-02-20T18:54:41;9.20;99.90
4461;DHT22;2243;48.812;9.232;2023-02-20T18:57:12;9.20;99.90
4461;DHT22;2243;48.812;9.232;2023-02-20T18:59:43;9.10;99.90
4461;DHT22;2243;48.812;9.232;2023-02-20T19:02:15;9.10;99.90
4461;DHT22;2243;48.812;9.232;2023-02-20T19:04:48;8.90;99.90
4461;DHT22;2243;48.812;9.232;2023-02-20T19:07:19;8.80;99.90
4461;DHT22;2243;48.812;9.232;2023-02-20T19:09:50;8.70;99.90
4461;DHT22;2243;48.812;9.232;2023-02-20T19:12:23;8.60;99.90